Time;durP1;ratioP1;P1;durP2;ratioP2;P2;SDS_P1;SDS_P2;PMS_P1;PMS_P2;Temp;Humidity;BMP_temperature;BMP_pressure;BME280_temperature;BME280_humidity;BME280_pressure;Samples;Min_cycle;Max_cycle;Signal;HPM_P1;HPM_P2
2023/01/29 00:02:15;;;;;;;7.50;6.47;;;;;;;-1.64;100.00;96800.38;5091996;28;24483;-73
2023/01/29 00:04:43;;;;;;;6.15;5.55;;;;;;;-1.66;100.00;96797.84;5099329;28;24458;-74
2023/01/29 00:07:09;;;;;;;8.20;6.07;;;;;;;-1.76;100.00;96796.97;5086569;28;25016;-73
2023/01/29 00:09:36;;;;;;;6.72;6.05;;;;;;;-1.68;100.00;96803.75;5093923;28;24437;-73
2023/01/29 00:12:03;;;;;;;6.53;5.93;;;;;;;-1.72;100.00;96796.13;5086085;28;24442;-73
2023/01/29 00:14:29;;;;;;;7.20;6.30;;;;;;;-1.68;100.00;96793.59;5092855;28;24442;-73
2023/01/29 00:16:56;;;;;;;8.57;6.45;;;;;;;-1.58;100.00;96790.22;5101355;28;24437;-71
2023/01/29 00:19:22;;;;;;;6.93;6.13;;;;;;;-1.67;100.00;96791.03;5092436;28;25063;-73
2023/01/29 00:21:50;;;;;;;8.02;6.75;;;;;;;-1.74;100.00;96799.53;5090770;28;24430;-73
2023/01/29 00:24:16;;;;;;;6.60;5.90;;;;;;;-1.78;100.00;96788.50;5090000;28;24461;-73
2023/01/29 00:26:43;;;;;;;4.10;3.60;;;;;;;-1.84;100.00;96783.41;5094446;28;24438;-72
2023/01/29 00:29:09;;;;;;;4.40;3.70;;;;;;;-1.77;100.00;96786.81;5097826;28;25002;-73
2023/01/29 00:31:36;;;;;;;7.25;6.53;;;;;;;-1.56;100.00;96784.31;5095270;28;24437;-73
2023/01/29 00:34:03;;;;;;;7.20;6.50;;;;;;;-1.33;100.00;96781.78;5104427;28;24437;-73
2023/01/29 00:36:29;;;;;;;10.55;7.80;;;;;;;-1.37;100.00;96782.63;5093130;28;24462;-73
2023/01/29 00:38:59;;;;;;;7.90;7.10;;;;;;;-1.37;100.00;96785.16;5085907;28;24438;-72
2023/01/29 00:46:56;;;;;;;6.32;5.40;;;;;;;-1.36;100.00;96784.31;5096777;28;24475;-72
2023/01/29 00:49:22;;;;;;;6.63;5.93;;;;;;;-1.60;100.00;96781.75;5092333;28;24430;-73
2023/01/29 00:52:22;;;;;;;5.75;4.93;;;;;;;-1.73;100.00;96789.34;5097642;28;24835;-73
2023/01/29 00:54:37;;;;;;;4.82;4.28;;;;;;;-1.74;100.00;96780.06;5097111;28;24487;-73
2023/01/29 00:57:04;;;;;;;4.38;3.83;;;;;;;-1.72;100.00;96783.44;5098610;28;24445;-73
2023/01/29 00:59:30;;;;;;;2.55;2.35;;;;;;;-2.10;100.00;96787.59;5094590;28;24428;-73
2023/01/29 01:04:41;;;;;;;4.72;3.00;;;;;;;-1.88;100.00;96788.50;5097219;28;24481;-73
2023/01/29 01:07:08;;;;;;;4.13;2.80;;;;;;;-2.09;100.00;96789.28;5096445;28;24444;-73
2023/01/29 01:12:20;;;;;;;4.15;2.83;;;;;;;-2.01;100.00;96780.81;5094469;28;24477;-74
2023/01/29 01:14:47;;;;;;;3.50;2.90;;;;;;;-1.90;100.00;96787.63;5098314;28;24546;-71
2023/01/29 01:17:14;;;;;;;2.60;2.40;;;;;;;-1.81;100.00;96793.59;5095515;28;24430;-73
2023/01/29 01:19:40;;;;;;;4.20;3.78;;;;;;;-1.82;100.00;96785.94;5099240;28;24464;-73
2023/01/29 01:22:07;;;;;;;6.50;4.80;;;;;;;-1.41;100.00;96790.22;5103831;28;24457;-74
2023/01/29 01:24:33;;;;;;;3.55;3.25;;;;;;;-1.58;100.00;96795.31;5099562;28;24536;-73
2023/01/29 01:27:01;;;;;;;3.53;3.22;;;;;;;-1.42;100.00;96786.00;5104211;28;24438;-73
2023/01/29 01:29:27;;;;;;;3.30;2.80;;;;;;;-1.27;100.00;96780.91;5099938;28;24796;-73
2023/01/29 01:31:54;;;;;;;2.90;2.58;;;;;;;-1.23;100.00;96775.81;5098744;28;24434;-73
2023/01/29 01:34:21;;;;;;;3.10;2.80;;;;;;;-1.38;100.00;96786.00;5101546;28;24477;-73
2023/01/29 01:36:48;;;;;;;3.65;2.92;;;;;;;-1.36;100.00;96781.78;5096990;28;24515;-71
2023/01/29 01:39:14;;;;;;;4.60;3.33;;;;;;;-1.46;100.00;96780.06;5078049;28;24430;-73
2023/01/29 01:41:41;;;;;;;3.35;3.05;;;;;;;-1.33;100.00;96786.84;5094542;28;24434;-73
2023/01/29 01:44:41;;;;;;;4.00;3.13;;;;;;;-1.59;100.00;96786.84;5100840;28;24457;-73
2023/01/29 01:47:09;;;;;;;4.13;3.50;;;;;;;-1.98;100.00;96790.16;5100869;28;24434;-73
2023/01/29 01:49:35;;;;;;;3.70;2.75;;;;;;;-2.01;100.00;96795.22;5091151;28;24433;-73
2023/01/29 01:52:02;;;;;;;4.00;2.78;;;;;;;-2.01;100.00;96785.06;5098919;28;24442;-73
2023/01/29 01:54:32;;;;;;;3.28;2.67;;;;;;;-2.04;100.00;96785.91;5099564;28;24444;-73
2023/01/29 01:57:08;;;;;;;4.20;2.38;;;;;;;-2.29;100.00;96779.06;5085444;28;24505;-73
2023/01/29 01:59:37;;;;;;;4.17;2.53;;;;;;;-2.34;100.00;96786.63;5087594;28;24457;-73
2023/01/29 02:10:27;;;;;;;2.90;2.42;;;;;;;-2.11;100.00;96784.22;5090712;28;24830;-74
2023/01/29 02:12:53;;;;;;;2.70;2.50;;;;;;;-2.18;100.00;96781.66;5090026;28;24442;-73
2023/01/29 02:15:20;;;;;;;3.15;2.45;;;;;;;-2.22;100.00;96785.88;5097147;28;24549;-73
2023/01/29 02:17:47;;;;;;;2.65;2.30;;;;;;;-2.11;100.00;96785.88;5094649;28;24999;-72
2023/01/29 02:20:23;;;;;;;2.27;2.07;;;;;;;-1.82;100.00;96796.94;5095705;28;24847;-73
2023/01/29 02:23:15;;;;;;;2.45;2.20;;;;;;;-1.86;100.00;96800.31;5095532;28;24441;-73
2023/01/29 02:25:59;;;;;;;2.50;2.30;;;;;;;-1.86;100.00;96794.41;5101708;28;24994;-73
2023/01/29 02:28:39;;;;;;;2.95;2.40;;;;;;;-1.61;100.00;96790.22;5089408;28;24812;-73
2023/01/29 02:31:12;;;;;;;3.78;2.65;;;;;;;-1.84;100.00;96790.19;5098352;28;24441;-73
2023/01/29 02:33:51;;;;;;;3.72;2.72;;;;;;;-1.95;100.00;96797.78;5103739;28;24441;-73
2023/01/29 02:36:31;;;;;;;2.50;2.17;;;;;;;-2.03;100.00;96799.47;5093477;28;24445;-73
2023/01/29 02:39:03;;;;;;;2.97;2.20;;;;;;;-1.91;100.00;96791.88;5089176;28;24507;-73
2023/01/29 02:41:39;;;;;;;2.40;2.20;;;;;;;-1.50;100.00;96791.91;5100234;28;24524;-73
2023/01/29 02:44:17;;;;;;;2.73;2.43;;;;;;;-1.79;100.00;96788.50;5093834;28;24461;-73
2023/01/29 02:46:51;;;;;;;3.20;2.55;;;;;;;-1.95;100.00;96788.47;5095118;28;24510;-73
2023/01/29 02:49:24;;;;;;;3.30;3.00;;;;;;;-2.04;100.00;96790.13;5076755;28;24529;-73
2023/01/29 02:52:00;;;;;;;2.60;2.40;;;;;;;-2.03;100.00;96779.16;5090118;28;24509;-73
2023/01/29 02:54:33;;;;;;;2.70;2.47;;;;;;;-2.00;100.00;96779.16;5097206;28;24434;-73
2023/01/29 02:57:05;;;;;;;4.63;2.90;;;;;;;-2.06;100.00;96776.59;5083733;28;24435;-72
2023/01/29 02:59:37;;;;;;;3.10;2.72;;;;;;;-1.65;100.00;96773.28;5096204;28;24507;-73
2023/01/29 03:02:10;;;;;;;5.90;3.07;;;;;;;-1.60;100.00;96776.66;5086911;28;25124;-73
2023/01/29 03:04:44;;;;;;;3.30;3.00;;;;;;;-1.78;100.00;96780.91;5096729;28;24516;-73
2023/01/29 03:07:39;;;;;;;3.28;2.60;;;;;;;-1.98;100.00;96775.75;5089399;28;24487;-73
2023/01/29 03:10:05;;;;;;;3.00;2.70;;;;;;;-1.73;100.00;96788.50;5095981;28;24521;-73
2023/01/29 03:12:35;;;;;;;3.17;2.85;;;;;;;-1.61;100.00;96792.75;5087374;28;24442;-73
2023/01/29 03:15:15;;;;;;;3.10;2.80;;;;;;;-1.85;100.00;96791.03;5100503;28;24430;-73
2023/01/29 03:17:46;;;;;;;3.55;2.70;;;;;;;-1.44;100.00;96788.56;5097365;28;24444;-73
2023/01/29 03:20:17;;;;;;;3.03;2.67;;;;;;;-1.82;100.00;96794.41;5087464;28;24438;-73
2023/01/29 03:22:49;;;;;;;4.43;2.90;;;;;;;-2.08;100.00;96785.88;5093185;28;24439;-73
2023/01/29 03:33:45;;;;;;;3.40;3.10;;;;;;;-2.12;100.00;96784.19;5098647;28;24464;-72
2023/01/29 03:36:17;;;;;;;2.55;2.20;;;;;;;-1.81;100.00;96785.13;5095182;28;24448;-71
2023/01/29 03:38:44;;;;;;;4.30;2.70;;;;;;;-1.77;100.00;96782.59;5078695;28;24442;-71
2023/01/29 03:41:20;;;;;;;3.67;2.85;;;;;;;-1.65;100.00;96773.28;5097905;28;24441;-72
2023/01/29 03:43:54;;;;;;;2.72;2.53;;;;;;;-1.55;100.00;96787.69;5085092;28;24430;-72
2023/01/29 03:46:30;;;;;;;3.45;2.92;;;;;;;-1.88;100.00;96779.19;5087836;28;24836;-71
2023/01/29 03:49:06;;;;;;;2.70;2.50;;;;;;;-1.82;100.00;96789.31;5095116;28;24804;-72
2023/01/29 03:51:37;;;;;;;3.28;2.85;;;;;;;-2.00;100.00;96781.69;5098943;28;24436;-72
2023/01/29 03:54:09;;;;;;;9.05;2.88;;;;;;;-1.84;100.00;96777.50;5103700;28;24441;-72
2023/01/29 03:56:49;;;;;;;2.75;2.50;;;;;;;-1.87;100.00;96777.47;5086146;28;24660;-72
2023/01/29 03:59:27;;;;;;;4.03;2.90;;;;;;;-1.85;100.00;96785.97;5085502;28;24444;-73
2023/01/29 04:01:59;;;;;;;3.17;2.88;;;;;;;-2.08;100.00;96779.13;5091373;28;24979;-72
2023/01/29 04:04:30;;;;;;;3.57;3.20;;;;;;;-2.27;100.00;96783.28;5101220;28;24656;-71
2023/01/29 04:07:02;;;;;;;3.42;3.10;;;;;;;-2.23;100.00;96779.06;5096312;28;24432;-72
2023/01/29 04:09:32;;;;;;;4.18;3.20;;;;;;;-2.16;100.00;96779.94;5096628;28;24438;-72
2023/01/29 04:12:07;;;;;;;2.90;2.60;;;;;;;-1.96;100.00;96774.09;5085914;28;24441;-72
2023/01/29 04:14:35;;;;;;;4.10;3.00;;;;;;;-1.99;100.00;96775.78;5079159;28;24996;-73
2023/01/29 04:17:10;;;;;;;4.85;3.03;;;;;;;-1.77;100.00;96777.50;5089495;28;24435;-71
2023/01/29 04:19:36;;;;;;;4.00;3.28;;;;;;;-1.79;100.00;96776.66;5083918;28;24434;-73
2023/01/29 04:22:07;;;;;;;3.35;3.00;;;;;;;-1.82;100.00;96776.63;5090143;28;24438;-72
2023/01/29 04:24:34;;;;;;;3.33;3.05;;;;;;;-1.63;100.00;96780.06;5083664;28;24454;-72
2023/01/29 04:27:12;;;;;;;4.93;3.03;;;;;;;-1.41;100.00;96777.53;5081687;28;25015;-72
2023/01/29 04:29:50;;;;;;;4.13;3.65;;;;;;;-1.93;100.00;96780.84;5090838;28;24797;-71
2023/01/29 04:32:27;;;;;;;3.75;3.40;;;;;;;-2.04;100.00;96780.84;5086548;28;24437;-72
2023/01/29 04:35:00;;;;;;;7.13;4.17;;;;;;;-2.36;100.00;96782.44;5089191;28;24445;-72
2023/01/29 04:37:35;;;;;;;5.23;4.30;;;;;;;-2.63;100.00;96780.59;5092638;28;24557;-72
2023/01/29 04:40:11;;;;;;;4.45;3.60;;;;;;;-2.75;100.00;96778.84;5091461;28;24430;-71
2023/01/29 04:42:48;;;;;;;4.00;3.28;;;;;;;-2.85;100.00;96779.66;5092904;28;24558;-72
2023/01/29 04:45:20;;;;;;;3.92;3.20;;;;;;;-2.93;100.00;96775.41;5088821;28;24540;-73
2023/01/29 04:47:54;;;;;;;3.40;3.10;;;;;;;-3.02;100.00;96775.31;5093000;28;25036;-72
2023/01/29 04:50:27;;;;;;;3.40;3.03;;;;;;;-3.04;100.00;96761.81;5095806;28;24434;-72
2023/01/29 04:53:01;;;;;;;4.43;3.27;;;;;;;-3.01;100.00;96769.41;5093625;28;24999;-73
2023/01/29 04:55:36;;;;;;;3.50;3.17;;;;;;;-3.03;100.00;96760.97;5091560;28;24448;-72
2023/01/29 04:58:09;;;;;;;4.25;3.70;;;;;;;-2.87;100.00;96766.97;5090436;28;24434;-72
2023/01/29 05:00:40;;;;;;;3.78;3.20;;;;;;;-2.82;100.00;96770.34;5093034;28;24442;-72
2023/01/29 05:03:10;;;;;;;3.55;3.25;;;;;;;-2.63;100.00;96765.38;5091784;28;24439;-72
2023/01/29 05:05:39;;;;;;;4.53;3.40;;;;;;;-2.57;100.00;96765.41;5093905;28;24512;-72
2023/01/29 05:08:07;;;;;;;3.40;3.10;;;;;;;-2.40;100.00;96758.72;5103946;28;24496;-72
2023/01/29 05:10:34;;;;;;;3.50;3.20;;;;;;;-1.98;100.00;96768.16;5089536;28;24431;-72
2023/01/29 05:13:04;;;;;;;3.72;3.40;;;;;;;-2.03;100.00;96762.22;5102504;28;24511;-72
2023/01/29 05:15:37;;;;;;;3.38;3.10;;;;;;;-2.04;100.00;96762.19;5097748;28;24989;-72
2023/01/29 05:18:07;;;;;;;3.92;3.50;;;;;;;-1.90;100.00;96767.31;5087566;28;24441;-72
2023/01/29 05:20:37;;;;;;;4.43;4.03;;;;;;;-1.68;100.00;96763.97;5093165;28;24885;-72
2023/01/29 05:23:04;;;;;;;4.35;3.92;;;;;;;-2.02;100.00;96771.53;5098652;28;25091;-73
2023/01/29 05:25:34;;;;;;;3.50;3.20;;;;;;;-1.65;100.00;96776.66;5102320;28;24537;-72
2023/01/29 05:28:06;;;;;;;3.40;3.10;;;;;;;-1.64;100.00;96780.91;5100615;28;24435;-72
2023/01/29 05:30:34;;;;;;;4.93;3.75;;;;;;;-1.97;100.00;96777.44;5102788;28;24430;-72
2023/01/29 05:33:00;;;;;;;4.45;4.03;;;;;;;-2.14;100.00;96784.19;5090975;28;24437;-72
2023/01/29 05:35:28;;;;;;;4.50;3.58;;;;;;;-2.48;100.00;96783.22;5098296;28;24418;-72
2023/01/29 05:37:57;;;;;;;3.53;3.22;;;;;;;-2.50;100.00;96784.91;5094921;28;24858;-72
2023/01/29 05:40:24;;;;;;;4.35;3.30;;;;;;;-2.53;100.00;96789.94;5093113;28;24454;-72
2023/01/29 05:42:50;;;;;;;3.78;3.28;;;;;;;-2.48;100.00;96783.22;5103182;28;24469;-71
2023/01/29 05:45:18;;;;;;;3.33;3.03;;;;;;;-2.39;100.00;96782.41;5085771;28;24458;-71
2023/01/29 05:47:44;;;;;;;4.28;3.08;;;;;;;-2.34;100.00;96784.09;5094688;28;24490;-71
2023/01/29 05:50:12;;;;;;;3.72;3.42;;;;;;;-2.21;100.00;96778.25;5089080;28;24434;-72
2023/01/29 05:52:38;;;;;;;4.15;3.50;;;;;;;-2.18;100.00;96753.72;5089936;28;24438;-72
2023/01/29 05:55:08;;;;;;;4.07;3.67;;;;;;;-2.36;100.00;96741.84;5092126;28;24942;-72
2023/01/29 05:57:34;;;;;;;3.80;3.50;;;;;;;-2.51;100.00;96729.94;5084758;28;24439;-72
2023/01/29 06:00:01;;;;;;;4.20;3.78;;;;;;;-2.59;100.00;96732.44;5084793;28;24443;-71
2023/01/29 06:02:29;;;;;;;4.18;3.78;;;;;;;-2.61;100.00;96741.72;5089154;28;24430;-72
2023/01/29 06:04:56;;;;;;;5.78;3.55;;;;;;;-2.47;100.00;96745.16;5088667;28;24815;-72
2023/01/29 06:07:22;;;;;;;4.00;3.67;;;;;;;-2.62;100.00;96745.13;5089886;28;24796;-72
2023/01/29 06:09:49;;;;;;;3.90;3.50;;;;;;;-2.57;100.00;96747.66;5093208;28;24438;-72
2023/01/29 06:12:17;;;;;;;3.58;3.28;;;;;;;-2.32;100.00;96746.91;5083376;28;24442;-72
2023/01/29 06:14:43;;;;;;;3.72;3.42;;;;;;;-2.31;100.00;96748.59;5093298;28;24995;-72
2023/01/29 06:17:09;;;;;;;5.63;4.10;;;;;;;-2.36;100.00;96757.06;5096875;28;24437;-72
2023/01/29 06:19:36;;;;;;;6.45;3.80;;;;;;;-2.30;100.00;96752.84;5097454;28;24434;-72
2023/01/29 06:22:02;;;;;;;4.65;4.25;;;;;;;-2.22;100.00;96755.41;5095787;28;24433;-72
2023/01/29 06:24:29;;;;;;;5.00;3.40;;;;;;;-2.17;100.00;96753.72;5098493;28;24990;-72
2023/01/29 06:26:55;;;;;;;4.47;3.63;;;;;;;-2.23;100.00;96762.16;5088369;28;24820;-72
2023/01/29 06:29:23;;;;;;;3.70;3.30;;;;;;;-2.17;100.00;96760.50;5096490;28;24789;-72
2023/01/29 06:31:50;;;;;;;3.92;3.40;;;;;;;-2.11;100.00;96763.03;5102992;28;24440;-72
2023/01/29 06:34:16;;;;;;;3.80;3.40;;;;;;;-2.06;100.00;96774.06;5099407;28;24445;-72
2023/01/29 06:36:43;;;;;;;3.67;3.38;;;;;;;-2.09;100.00;96766.44;5089358;28;24992;-72
2023/01/29 06:39:09;;;;;;;3.63;3.33;;;;;;;-2.01;100.00;96769.81;5090134;28;24990;-72
2023/01/29 06:41:36;;;;;;;3.58;3.28;;;;;;;-2.07;100.00;96773.22;5100584;28;24447;-72
2023/01/29 06:44:02;;;;;;;4.70;4.13;;;;;;;-1.85;100.00;96770.72;5099032;28;24449;-73
2023/01/29 06:46:30;;;;;;;5.38;3.83;;;;;;;-1.91;100.00;96773.25;5100574;28;24446;-73
2023/01/29 06:48:58;;;;;;;4.03;3.63;;;;;;;-2.23;100.00;96772.31;5087768;28;24442;-72
2023/01/29 06:51:25;;;;;;;6.13;3.58;;;;;;;-2.09;100.00;96768.97;5092717;28;24515;-72
2023/01/29 06:53:53;;;;;;;4.13;3.50;;;;;;;-1.73;100.00;96769.03;5092900;28;24445;-72
2023/01/29 06:56:20;;;;;;;3.88;3.40;;;;;;;-1.99;100.00;96765.63;5080641;28;24456;-72
2023/01/29 06:58:46;;;;;;;3.40;3.10;;;;;;;-2.04;100.00;96772.34;5089003;28;25002;-72
2023/01/29 07:01:13;;;;;;;4.28;3.88;;;;;;;-2.01;100.00;96775.75;5084202;28;24453;-73
2023/01/29 07:03:41;;;;;;;4.30;3.90;;;;;;;-1.90;100.00;96780.84;5096099;28;24804;-72
2023/01/29 07:06:08;;;;;;;6.27;4.57;;;;;;;-1.92;100.00;96785.09;5100764;28;24579;-73
2023/01/29 07:08:36;;;;;;;6.45;4.55;;;;;;;-2.06;100.00;96776.59;5097857;28;24437;-72
2023/01/29 07:11:03;;;;;;;4.50;4.10;;;;;;;-2.29;100.00;96774.00;5097687;28;24442;-73
2023/01/29 07:13:30;;;;;;;6.35;5.30;;;;;;;-2.34;100.00;96768.88;5091627;28;24796;-73
2023/01/29 07:15:58;;;;;;;5.85;4.55;;;;;;;-2.46;100.00;96768.84;5090356;28;24489;-73
2023/01/29 07:18:24;;;;;;;5.13;4.63;;;;;;;-2.52;100.00;96762.06;5094016;28;24800;-73
2023/01/29 07:20:52;;;;;;;5.03;4.30;;;;;;;-2.52;100.00;96762.06;5087788;28;24508;-73
2023/01/29 07:23:19;;;;;;;5.50;5.00;;;;;;;-2.38;100.00;96764.63;5086648;28;24534;-73
2023/01/29 07:25:45;;;;;;;4.72;4.32;;;;;;;-2.29;100.00;96763.84;5099683;28;24453;-73
2023/01/29 07:28:12;;;;;;;5.22;4.72;;;;;;;-2.30;100.00;96774.81;5088653;28;24529;-73
2023/01/29 07:30:38;;;;;;;5.13;4.63;;;;;;;-2.18;100.00;96782.50;5091759;28;24963;-73
2023/01/29 07:33:06;;;;;;;5.72;5.07;;;;;;;-2.12;100.00;96779.09;5093174;28;24981;-73
2023/01/29 07:35:37;;;;;;;5.70;5.20;;;;;;;-2.04;100.00;96780.84;5093776;28;24524;-73
2023/01/29 07:38:05;;;;;;;5.65;5.05;;;;;;;-2.05;100.00;96784.19;5100999;28;24440;-73
2023/01/29 07:40:31;;;;;;;5.95;5.03;;;;;;;-2.00;100.00;96800.31;5097588;28;24440;-73
2023/01/29 07:42:59;;;;;;;6.03;5.35;;;;;;;-2.06;100.00;96799.44;5102047;28;24444;-73
2023/01/29 07:45:26;;;;;;;6.68;5.50;;;;;;;-2.20;100.00;96794.31;5088322;28;24808;-73
2023/01/29 07:47:53;;;;;;;5.30;4.80;;;;;;;-2.15;100.00;96802.81;5092344;28;24449;-73
2023/01/29 07:50:19;;;;;;;6.15;5.30;;;;;;;-2.17;100.00;96801.09;5084348;28;24431;-73
2023/01/29 07:52:46;;;;;;;6.40;5.70;;;;;;;-2.24;100.00;96803.59;5090173;28;24462;-74
2023/01/29 07:55:14;;;;;;;6.53;5.68;;;;;;;-2.23;100.00;96801.91;5092390;28;24795;-73
2023/01/29 07:57:41;;;;;;;6.03;4.97;;;;;;;-2.31;100.00;96799.34;5090883;28;24456;-73
2023/01/29 08:00:09;;;;;;;5.15;4.72;;;;;;;-2.16;100.00;96808.72;5094495;28;24986;-73
2023/01/29 08:02:35;;;;;;;5.57;5.07;;;;;;;-2.18;100.00;96807.03;5091339;28;24448;-73
2023/01/29 08:05:02;;;;;;;6.72;5.20;;;;;;;-2.28;100.00;96808.66;5091978;28;24465;-73
2023/01/29 08:07:28;;;;;;;5.95;5.20;;;;;;;-2.22;100.00;96814.63;5101029;28;24454;-73
2023/01/29 08:09:55;;;;;;;5.47;4.97;;;;;;;-2.29;100.00;96809.53;5100021;28;24437;-73
2023/01/29 08:12:22;;;;;;;6.35;5.75;;;;;;;-2.26;100.00;96812.91;5098852;28;24433;-73
2023/01/29 08:14:49;;;;;;;6.38;5.78;;;;;;;-2.12;100.00;96814.63;5109250;28;24445;-73
2023/01/29 08:17:16;;;;;;;5.93;5.43;;;;;;;-2.07;100.00;96818.91;5096116;28;24445;-73
2023/01/29 08:19:42;;;;;;;6.78;6.07;;;;;;;-1.82;100.00;96817.25;5093761;28;24442;-73
2023/01/29 08:22:09;;;;;;;10.27;8.75;;;;;;;-1.78;100.00;96820.66;5099384;28;24432;-73
2023/01/29 08:24:35;;;;;;;7.53;6.33;;;;;;;-1.88;100.00;96822.34;5098884;28;24441;-73
2023/01/29 08:27:02;;;;;;;7.00;5.97;;;;;;;-1.60;100.00;96822.38;5102010;28;24995;-73
2023/01/29 08:29:30;;;;;;;7.78;6.22;;;;;;;-1.72;100.00;96823.22;5102536;28;24445;-73
2023/01/29 08:31:56;;;;;;;7.07;6.38;;;;;;;-1.75;100.00;96829.13;5102400;28;24442;-73
2023/01/29 08:34:23;;;;;;;9.45;6.57;;;;;;;-1.88;100.00;96832.50;5106103;28;24449;-73
2023/01/29 08:36:49;;;;;;;9.20;8.18;;;;;;;-2.10;100.00;96839.19;5101286;28;24429;-73
2023/01/29 08:39:16;;;;;;;8.68;6.30;;;;;;;-2.03;100.00;96840.91;5105305;28;24437;-73
2023/01/29 08:41:42;;;;;;;6.17;5.10;;;;;;;-1.93;100.00;96841.78;5102684;28;24545;-73
2023/01/29 08:44:09;;;;;;;5.30;4.90;;;;;;;-1.89;100.00;96835.88;5102874;28;24446;-73
2023/01/29 08:46:39;;;;;;;5.87;5.37;;;;;;;-1.80;100.00;96843.53;5101625;28;24626;-73
2023/01/29 08:49:06;;;;;;;6.60;5.93;;;;;;;-1.90;100.00;96841.78;5109333;28;24437;-73
2023/01/29 08:51:32;;;;;;;19.75;14.80;;;;;;;-2.13;100.00;96844.25;5102253;28;24441;-73
2023/01/29 08:53:59;;;;;;;8.85;7.78;;;;;;;-2.32;100.00;96837.41;5095136;28;24448;-73
2023/01/29 08:56:25;;;;;;;9.57;6.93;;;;;;;-2.29;100.00;96833.19;5094330;28;24906;-73
2023/01/29 08:58:52;;;;;;;7.47;6.55;;;;;;;-2.25;100.00;96823.91;5100634;28;24442;-73
2023/01/29 09:01:18;;;;;;;9.50;5.97;;;;;;;-2.26;100.00;96828.16;5088500;28;24438;-74
2023/01/29 09:03:46;;;;;;;8.02;6.00;;;;;;;-2.28;100.00;96826.44;5099362;28;24445;-74
2023/01/29 09:06:14;;;;;;;8.23;6.47;;;;;;;-2.32;100.00;96833.19;5091777;28;24453;-73
2023/01/29 09:08:41;;;;;;;8.82;6.97;;;;;;;-2.32;100.00;96835.72;5106534;28;24426;-73
2023/01/29 09:11:07;;;;;;;7.35;6.65;;;;;;;-2.38;100.00;96829.75;5091575;28;24438;-73
2023/01/29 09:13:34;;;;;;;7.78;6.35;;;;;;;-2.35;100.00;96835.69;5098048;28;24524;-73
2023/01/29 09:16:01;;;;;;;8.02;6.68;;;;;;;-2.29;100.00;96843.34;5093879;28;24435;-73
2023/01/29 09:18:28;;;;;;;7.32;6.60;;;;;;;-2.20;100.00;96840.84;5097388;28;24430;-73
2023/01/29 09:20:57;;;;;;;7.60;6.85;;;;;;;-2.07;100.00;96844.28;5098731;28;24437;-73
2023/01/29 09:23:23;;;;;;;7.10;6.40;;;;;;;-2.12;100.00;96848.47;5090299;28;24454;-73
2023/01/29 09:25:50;;;;;;;8.07;7.00;;;;;;;-2.17;100.00;96847.63;5093429;28;24444;-73
2023/01/29 09:28:17;;;;;;;7.50;6.75;;;;;;;-2.08;100.00;96849.34;5096695;28;24971;-73
2023/01/29 09:30:44;;;;;;;7.88;7.07;;;;;;;-1.97;100.00;96848.53;5086218;28;25064;-73
2023/01/29 09:33:10;;;;;;;7.82;7.10;;;;;;;-1.87;100.00;96848.56;5098486;28;24440;-73
2023/01/29 09:35:37;;;;;;;7.10;6.47;;;;;;;-1.90;100.00;96849.41;5108674;28;24440;-74
2023/01/29 09:38:04;;;;;;;7.60;6.80;;;;;;;-1.72;100.00;96851.16;5099587;28;24437;-74
2023/01/29 09:40:38;;;;;;;10.02;6.35;;;;;;;-1.67;100.00;96852.00;5101104;28;24438;-73
2023/01/29 09:43:10;;;;;;;7.63;6.68;;;;;;;-1.54;100.00;96851.19;5087022;28;24441;-74
2023/01/29 09:45:42;;;;;;;9.07;8.18;;;;;;;-1.57;100.00;96850.34;5088752;28;24438;-74
2023/01/29 09:48:12;;;;;;;7.65;6.75;;;;;;;-1.54;100.00;96845.28;5091613;28;24449;-74
2023/01/29 09:50:43;;;;;;;9.23;7.82;;;;;;;-1.35;100.00;96836.81;5085294;28;25017;-74
2023/01/29 09:53:19;;;;;;;11.48;7.22;;;;;;;-1.23;100.00;96830.91;5080875;28;24438;-74
2023/01/29 09:55:50;;;;;;;8.90;7.35;;;;;;;-1.25;100.00;96820.75;5087780;28;24435;-74
2023/01/29 09:58:22;;;;;;;7.68;6.80;;;;;;;-1.09;100.00;96805.47;5091173;28;24438;-74
2023/01/29 10:00:56;;;;;;;7.60;6.90;;;;;;;-1.23;100.00;96810.56;5083461;28;24441;-72
2023/01/29 10:03:50;;;;;;;8.38;7.47;;;;;;;-1.27;100.00;96801.25;5082464;28;24434;-73
2023/01/29 10:06:25;;;;;;;8.20;7.40;;;;;;;-0.99;100.00;96795.31;5087431;28;24838;-74
2023/01/29 10:09:33;;;;;;;11.63;8.07;;;;;;;-1.17;100.00;96780.06;5100158;28;24458;-74
2023/01/29 10:12:14;;;;;;;8.95;7.13;;;;;;;-0.98;100.00;96778.34;5096810;28;24446;-73
2023/01/29 10:14:52;;;;;;;12.05;7.88;;;;;;;-1.08;100.00;96782.59;5101113;28;24438;-73
2023/01/29 10:17:33;;;;;;;7.78;7.07;;;;;;;-1.05;100.00;96784.28;5087290;28;24430;-74
2023/01/29 10:20:43;;;;;;;8.73;7.60;;;;;;;-1.17;100.00;96776.69;5095758;28;24454;-74
2023/01/29 10:23:21;;;;;;;9.93;8.05;;;;;;;-1.27;100.00;96780.91;5043840;28;24994;-74
2023/01/29 10:25:50;;;;;;;11.47;9.10;;;;;;;-1.40;100.00;96792.78;5097019;28;24437;-74
2023/01/29 10:28:20;;;;;;;11.75;9.82;;;;;;;-1.40;100.00;96797.88;5076933;28;25009;-74
2023/01/29 10:30:49;;;;;;;9.18;8.07;;;;;;;-1.07;100.00;96781.75;5090367;28;24430;-74
2023/01/29 10:33:26;;;;;;;8.13;7.38;;;;;;;-1.18;100.00;96775.00;5082304;28;24438;-73
2023/01/29 10:35:57;;;;;;;8.13;7.32;;;;;;;-1.00;100.00;96769.91;5087893;28;24430;-73
2023/01/29 10:38:35;;;;;;;8.50;7.65;;;;;;;-0.97;100.00;96775.78;5085665;28;24438;-74
2023/01/29 10:41:15;;;;;;;8.02;7.22;;;;;;;-0.85;100.00;96780.03;5098518;28;24441;-74
2023/01/29 10:43:54;;;;;;;9.90;8.90;;;;;;;-1.11;100.00;96772.44;5087020;28;24435;-73
2023/01/29 10:46:32;;;;;;;10.15;9.02;;;;;;;-1.26;100.00;96783.47;5094273;28;24430;-74
2023/01/29 10:49:10;;;;;;;9.02;7.90;;;;;;;-1.20;100.00;96780.06;5092093;28;24430;-74
2023/01/29 10:51:52;;;;;;;11.35;9.20;;;;;;;-1.15;100.00;96783.47;5080562;28;24438;-74
2023/01/29 10:54:45;;;;;;;8.63;7.83;;;;;;;-1.17;100.00;96787.69;5094596;28;24521;-73
2023/01/29 10:57:23;;;;;;;15.27;9.07;;;;;;;-1.20;100.00;96785.16;5090232;28;24425;-74
2023/01/29 11:00:03;;;;;;;8.90;8.00;;;;;;;-0.82;100.00;96787.63;5093885;28;24788;-73
2023/01/29 11:02:29;;;;;;;8.88;7.82;;;;;;;-0.77;100.00;96792.72;5084491;28;24530;-73
2023/01/29 11:04:56;;;;;;;10.30;8.52;;;;;;;-0.93;100.00;96791.88;5090383;28;24434;-74
2023/01/29 11:07:23;;;;;;;8.65;7.82;;;;;;;-0.77;100.00;96785.94;5090581;28;24453;-72
2023/01/29 11:09:57;;;;;;;8.70;7.80;;;;;;;-0.78;100.00;96783.38;5100763;28;24418;-74
2023/01/29 11:12:29;;;;;;;9.32;8.38;;;;;;;-0.97;100.00;96785.13;5083002;28;24446;-73
2023/01/29 11:15:01;;;;;;;9.27;8.38;;;;;;;-1.23;100.00;96783.44;5097673;28;24530;-73
2023/01/29 11:17:28;;;;;;;10.45;8.95;;;;;;;-1.34;100.00;96784.31;5085868;28;24509;-73
2023/01/29 11:19:55;;;;;;;13.45;8.95;;;;;;;-1.20;100.00;96785.16;5092366;28;24438;-74
2023/01/29 11:22:23;;;;;;;10.80;9.30;;;;;;;-0.95;100.00;96782.59;5090846;28;24517;-75
2023/01/29 11:25:09;;;;;;;8.30;7.50;;;;;;;-0.95;100.00;96787.69;5092048;28;24796;-73
2023/01/29 11:27:43;;;;;;;9.48;8.60;;;;;;;-1.07;100.00;96776.69;5090002;28;24509;-73
2023/01/29 11:30:17;;;;;;;8.68;7.88;;;;;;;-1.01;100.00;96775.81;5096337;28;24437;-73
2023/01/29 11:32:44;;;;;;;9.05;8.18;;;;;;;-1.07;100.00;96765.66;5088596;28;24835;-73
2023/01/29 11:35:22;;;;;;;9.20;8.27;;;;;;;-1.12;100.00;96754.63;5092296;28;24429;-74
2023/01/29 11:37:48;;;;;;;9.53;8.37;;;;;;;-1.03;100.00;96752.09;5095043;28;24812;-73
2023/01/29 11:40:37;;;;;;;10.05;8.35;;;;;;;-0.85;100.00;96749.50;5084217;28;24800;-73
2023/01/29 11:43:31;;;;;;;8.68;7.88;;;;;;;-0.85;100.00;96743.59;5087267;28;25287;-72
2023/01/29 11:46:00;;;;;;;9.93;8.02;;;;;;;-0.91;100.00;96746.13;5088466;28;25075;-72
2023/01/29 11:48:35;;;;;;;10.85;8.40;;;;;;;-0.82;100.00;96744.41;5083347;28;24443;-73
2023/01/29 11:51:02;;;;;;;9.27;8.13;;;;;;;-0.78;100.00;96751.19;5084486;28;24435;-73
2023/01/29 11:53:37;;;;;;;9.55;8.35;;;;;;;-0.92;100.00;96752.91;5078315;28;24445;-70
2023/01/29 11:56:15;;;;;;;9.85;8.85;;;;;;;-0.99;100.00;96757.16;5082871;28;24515;-73
2023/01/29 11:58:44;;;;;;;10.05;9.05;;;;;;;-1.01;100.00;96745.28;5086125;28;24433;-72
2023/01/29 12:01:12;;;;;;;15.55;11.70;;;;;;;-1.11;100.00;96751.22;5090304;28;24987;-73
2023/01/29 12:03:43;;;;;;;13.13;10.90;;;;;;;-1.25;100.00;96738.56;5086674;28;25014;-73
2023/01/29 12:06:18;;;;;;;11.05;9.18;;;;;;;-1.36;100.00;96730.94;5088714;28;24446;-73
2023/01/29 12:08:44;;;;;;;9.63;8.65;;;;;;;-1.35;100.00;96724.16;5088120;28;24457;-72